sensor_id;sensor_type;location;lat;lon;timestamp;P1;durP1;ratioP1;P2;durP2;ratioP2
22435;SDS011;11385;50.822;4.324;2023-06-14T00:04:46;9.78;;;5.62;;
22435;SDS011;11385;50.822;4.324;2023-06-14T00:07:13;9.00;;;5.37;;
22435;SDS011;11385;50.822;4.324;2023-06-14T00:09:42;7.85;;;5.10;;
22435;SDS011;11385;50.822;4.324;2023-06-14T00:12:09;8.00;;;5.17;;
22435;SDS011;11385;50.822;4.324;2023-06-14T00:14:35;9.40;;;5.20;;
22435;SDS011;11385;50.822;4.324;2023-06-14T00:17:02;8.73;;;5.25;;
22435;SDS011;11385;50.822;4.324;2023-06-14T00:19:29;10.75;;;5.62;;
22435;SDS011;11385;50.822;4.324;2023-06-14T00:21:58;7.12;;;5.22;;
22435;SDS011;11385;50.822;4.324;2023-06-14T00:24:24;6.15;;;5.10;;
22435;SDS011;11385;50.822;4.324;2023-06-14T00:26:51;8.93;;;5.45;;
22435;SDS011;11385;50.822;4.324;2023-06-14T00:29:17;10.20;;;5.75;;
22435;SDS011;11385;50.822;4.324;2023-06-14T00:31:44;9.03;;;5.75;;
22435;SDS011;11385;50.822;4.324;2023-06-14T00:34:11;8.65;;;5.97;;
22435;SDS011;11385;50.822;4.324;2023-06-14T00:36:37;11.12;;;5.03;;
22435;SDS011;11385;50.822;4.324;2023-06-14T00:39:04;7.85;;;5.17;;
22435;SDS011;11385;50.822;4.324;2023-06-14T00:41:30;8.00;;;5.35;;
22435;SDS011;11385;50.822;4.324;2023-06-14T00:43:57;9.90;;;5.37;;
22435;SDS011;11385;50.822;4.324;2023-06-14T00:46:25;10.75;;;6.10;;
22435;SDS011;11385;50.822;4.324;2023-06-14T00:48:51;7.58;;;5.50;;
22435;SDS011;11385;50.822;4.324;2023-06-14T00:51:19;8.03;;;4.90;;
22435;SDS011;11385;50.822;4.324;2023-06-14T00:53:45;9.65;;;5.10;;
22435;SDS011;11385;50.822;4.324;2023-06-14T00:56:13;12.18;;;5.50;;
22435;SDS011;11385;50.822;4.324;2023-06-14T00:58:40;8.60;;;4.83;;
22435;SDS011;11385;50.822;4.324;2023-06-14T01:01:08;7.65;;;4.97;;
22435;SDS011;11385;50.822;4.324;2023-06-14T01:03:35;8.83;;;5.55;;
22435;SDS011;11385;50.822;4.324;2023-06-14T01:08:42;9.25;;;5.65;;
22435;SDS011;11385;50.822;4.324;2023-06-14T01:11:12;12.18;;;5.33;;
22435;SDS011;11385;50.822;4.324;2023-06-14T01:13:43;9.33;;;5.10;;
22435;SDS011;11385;50.822;4.324;2023-06-14T01:16:12;8.13;;;4.65;;
22435;SDS011;11385;50.822;4.324;2023-06-14T01:18:39;8.88;;;5.45;;
22435;SDS011;11385;50.822;4.324;2023-06-14T01:23:47;9.55;;;5.12;;
22435;SDS011;11385;50.822;4.324;2023-06-14T01:26:15;7.50;;;5.72;;
22435;SDS011;11385;50.822;4.324;2023-06-14T01:28:42;8.53;;;4.90;;
22435;SDS011;11385;50.822;4.324;2023-06-14T01:31:11;11.75;;;5.22;;
22435;SDS011;11385;50.822;4.324;2023-06-14T01:33:38;8.98;;;5.85;;
22435;SDS011;11385;50.822;4.324;2023-06-14T01:36:05;11.15;;;5.35;;
22435;SDS011;11385;50.822;4.324;2023-06-14T01:38:35;7.28;;;5.78;;
22435;SDS011;11385;50.822;4.324;2023-06-14T01:41:03;9.83;;;5.58;;
22435;SDS011;11385;50.822;4.324;2023-06-14T01:43:30;7.85;;;5.25;;
22435;SDS011;11385;50.822;4.324;2023-06-14T01:45:59;8.10;;;6.17;;
22435;SDS011;11385;50.822;4.324;2023-06-14T01:48:26;8.33;;;5.20;;
22435;SDS011;11385;50.822;4.324;2023-06-14T01:50:53;9.13;;;5.97;;
22435;SDS011;11385;50.822;4.324;2023-06-14T01:53:20;9.98;;;6.17;;
22435;SDS011;11385;50.822;4.324;2023-06-14T01:55:46;8.75;;;6.30;;
22435;SDS011;11385;50.822;4.324;2023-06-14T01:58:14;10.23;;;6.12;;
22435;SDS011;11385;50.822;4.324;2023-06-14T02:00:42;9.03;;;5.92;;
22435;SDS011;11385;50.822;4.324;2023-06-14T02:03:11;12.43;;;5.95;;
22435;SDS011;11385;50.822;4.324;2023-06-14T02:05:38;9.60;;;6.05;;
22435;SDS011;11385;50.822;4.324;2023-06-14T02:08:06;8.50;;;5.75;;
22435;SDS011;11385;50.822;4.324;2023-06-14T02:10:33;10.32;;;6.12;;
22435;SDS011;11385;50.822;4.324;2023-06-14T02:13:00;10.68;;;6.45;;
22435;SDS011;11385;50.822;4.324;2023-06-14T02:15:26;10.03;;;6.05;;
22435;SDS011;11385;50.822;4.324;2023-06-14T02:17:55;10.58;;;6.20;;
22435;SDS011;11385;50.822;4.324;2023-06-14T02:20:22;10.35;;;5.83;;
22435;SDS011;11385;50.822;4.324;2023-06-14T02:22:48;12.53;;;6.65;;
22435;SDS011;11385;50.822;4.324;2023-06-14T02:25:15;12.78;;;6.83;;
22435;SDS011;11385;50.822;4.324;2023-06-14T02:27:41;10.53;;;5.90;;
22435;SDS011;11385;50.822;4.324;2023-06-14T02:30:08;9.30;;;6.28;;
22435;SDS011;11385;50.822;4.324;2023-06-14T02:32:35;11.73;;;6.20;;
22435;SDS011;11385;50.822;4.324;2023-06-14T02:35:02;9.80;;;6.10;;
22435;SDS011;11385;50.822;4.324;2023-06-14T02:37:29;12.33;;;6.50;;
22435;SDS011;11385;50.822;4.324;2023-06-14T02:39:55;9.70;;;6.72;;
22435;SDS011;11385;50.822;4.324;2023-06-14T02:42:22;10.30;;;6.45;;
22435;SDS011;11385;50.822;4.324;2023-06-14T02:44:49;8.98;;;6.00;;
22435;SDS011;11385;50.822;4.324;2023-06-14T02:47:18;10.25;;;6.33;;
22435;SDS011;11385;50.822;4.324;2023-06-14T02:49:45;11.22;;;6.58;;
22435;SDS011;11385;50.822;4.324;2023-06-14T02:52:12;10.30;;;6.83;;
22435;SDS011;11385;50.822;4.324;2023-06-14T02:54:39;10.98;;;6.30;;
22435;SDS011;11385;50.822;4.324;2023-06-14T02:57:05;11.03;;;6.62;;
22435;SDS011;11385;50.822;4.324;2023-06-14T02:59:33;10.32;;;6.53;;
22435;SDS011;11385;50.822;4.324;2023-06-14T03:02:01;10.08;;;7.15;;
22435;SDS011;11385;50.822;4.324;2023-06-14T03:04:28;11.28;;;6.95;;
22435;SDS011;11385;50.822;4.324;2023-06-14T03:06:57;15.48;;;7.37;;
22435;SDS011;11385;50.822;4.324;2023-06-14T03:09:24;8.33;;;7.10;;
22435;SDS011;11385;50.822;4.324;2023-06-14T03:11:51;10.18;;;6.62;;
22435;SDS011;11385;50.822;4.324;2023-06-14T03:14:18;9.15;;;6.50;;
22435;SDS011;11385;50.822;4.324;2023-06-14T03:16:47;13.13;;;7.83;;
22435;SDS011;11385;50.822;4.324;2023-06-14T03:19:15;15.15;;;8.00;;
22435;SDS011;11385;50.822;4.324;2023-06-14T03:21:42;10.95;;;7.30;;
22435;SDS011;11385;50.822;4.324;2023-06-14T03:24:10;8.95;;;7.03;;
22435;SDS011;11385;50.822;4.324;2023-06-14T03:26:36;11.55;;;6.95;;
22435;SDS011;11385;50.822;4.324;2023-06-14T03:29:03;9.28;;;6.95;;
22435;SDS011;11385;50.822;4.324;2023-06-14T03:31:30;13.45;;;7.15;;
22435;SDS011;11385;50.822;4.324;2023-06-14T03:33:58;10.60;;;7.53;;
22435;SDS011;11385;50.822;4.324;2023-06-14T03:36:25;14.98;;;8.00;;
22435;SDS011;11385;50.822;4.324;2023-06-14T03:38:53;11.75;;;7.60;;
22435;SDS011;11385;50.822;4.324;2023-06-14T03:41:20;11.88;;;6.97;;
22435;SDS011;11385;50.822;4.324;2023-06-14T03:43:47;10.75;;;7.00;;
22435;SDS011;11385;50.822;4.324;2023-06-14T03:46:14;9.28;;;7.37;;
22435;SDS011;11385;50.822;4.324;2023-06-14T03:48:40;10.98;;;7.50;;
22435;SDS011;11385;50.822;4.324;2023-06-14T03:51:07;13.10;;;7.67;;
22435;SDS011;11385;50.822;4.324;2023-06-14T03:53:33;10.28;;;7.05;;
22435;SDS011;11385;50.822;4.324;2023-06-14T03:56:01;13.25;;;7.10;;
22435;SDS011;11385;50.822;4.324;2023-06-14T03:58:28;9.95;;;6.95;;
22435;SDS011;11385;50.822;4.324;2023-06-14T04:00:54;10.20;;;7.37;;
22435;SDS011;11385;50.822;4.324;2023-06-14T04:03:21;8.63;;;7.20;;
22435;SDS011;11385;50.822;4.324;2023-06-14T04:05:50;14.25;;;7.42;;
22435;SDS011;11385;50.822;4.324;2023-06-14T04:08:18;10.20;;;6.90;;
22435;SDS011;11385;50.822;4.324;2023-06-14T04:10:45;10.35;;;7.10;;
22435;SDS011;11385;50.822;4.324;2023-06-14T04:13:12;11.10;;;6.83;;
22435;SDS011;11385;50.822;4.324;2023-06-14T04:15:39;13.18;;;8.20;;
22435;SDS011;11385;50.822;4.324;2023-06-14T04:18:08;15.10;;;8.13;;
22435;SDS011;11385;50.822;4.324;2023-06-14T04:21:15;12.25;;;8.28;;
22435;SDS011;11385;50.822;4.324;2023-06-14T04:23:41;13.53;;;7.20;;
22435;SDS011;11385;50.822;4.324;2023-06-14T04:26:09;16.05;;;8.28;;
22435;SDS011;11385;50.822;4.324;2023-06-14T04:28:36;11.35;;;6.72;;
22435;SDS011;11385;50.822;4.324;2023-06-14T04:31:05;11.25;;;7.42;;
22435;SDS011;11385;50.822;4.324;2023-06-14T04:33:35;12.40;;;7.25;;
22435;SDS011;11385;50.822;4.324;2023-06-14T04:36:05;12.07;;;7.40;;
22435;SDS011;11385;50.822;4.324;2023-06-14T04:38:33;13.62;;;7.10;;
22435;SDS011;11385;50.822;4.324;2023-06-14T04:41:00;12.18;;;7.37;;
22435;SDS011;11385;50.822;4.324;2023-06-14T04:43:27;9.88;;;7.53;;
22435;SDS011;11385;50.822;4.324;2023-06-14T04:45:53;12.58;;;7.20;;
22435;SDS011;11385;50.822;4.324;2023-06-14T04:48:22;12.70;;;7.15;;
22435;SDS011;11385;50.822;4.324;2023-06-14T04:50:48;12.43;;;7.10;;
22435;SDS011;11385;50.822;4.324;2023-06-14T04:53:18;12.10;;;7.03;;
22435;SDS011;11385;50.822;4.324;2023-06-14T04:55:48;10.93;;;8.23;;
22435;SDS011;11385;50.822;4.324;2023-06-14T04:58:16;12.53;;;7.50;;
22435;SDS011;11385;50.822;4.324;2023-06-14T05:00:43;14.18;;;7.62;;
22435;SDS011;11385;50.822;4.324;2023-06-14T05:03:09;12.28;;;7.33;;
22435;SDS011;11385;50.822;4.324;2023-06-14T05:05:39;13.68;;;6.65;;
22435;SDS011;11385;50.822;4.324;2023-06-14T05:08:07;12.55;;;6.87;;
22435;SDS011;11385;50.822;4.324;2023-06-14T05:10:35;9.65;;;7.10;;
22435;SDS011;11385;50.822;4.324;2023-06-14T05:13:01;15.05;;;8.08;;
22435;SDS011;11385;50.822;4.324;2023-06-14T05:15:29;10.38;;;6.90;;
22435;SDS011;11385;50.822;4.324;2023-06-14T05:17:55;9.60;;;7.17;;
22435;SDS011;11385;50.822;4.324;2023-06-14T05:20:23;11.80;;;7.33;;
22435;SDS011;11385;50.822;4.324;2023-06-14T05:22:53;11.40;;;7.35;;
22435;SDS011;11385;50.822;4.324;2023-06-14T05:25:20;15.58;;;7.97;;
22435;SDS011;11385;50.822;4.324;2023-06-14T05:27:47;12.03;;;7.08;;
22435;SDS011;11385;50.822;4.324;2023-06-14T05:30:14;11.40;;;7.53;;
22435;SDS011;11385;50.822;4.324;2023-06-14T05:32:42;12.82;;;8.30;;
22435;SDS011;11385;50.822;4.324;2023-06-14T05:35:09;12.45;;;8.00;;
22435;SDS011;11385;50.822;4.324;2023-06-14T05:37:36;12.07;;;6.78;;
22435;SDS011;11385;50.822;4.324;2023-06-14T05:40:03;12.58;;;7.17;;
22435;SDS011;11385;50.822;4.324;2023-06-14T05:42:32;12.00;;;7.12;;
22435;SDS011;11385;50.822;4.324;2023-06-14T05:44:59;13.38;;;7.40;;
22435;SDS011;11385;50.822;4.324;2023-06-14T05:47:26;12.88;;;7.45;;
22435;SDS011;11385;50.822;4.324;2023-06-14T05:49:53;15.55;;;9.13;;
22435;SDS011;11385;50.822;4.324;2023-06-14T05:52:20;9.73;;;7.45;;
22435;SDS011;11385;50.822;4.324;2023-06-14T05:54:47;14.90;;;7.05;;
22435;SDS011;11385;50.822;4.324;2023-06-14T05:57:14;10.35;;;7.00;;
22435;SDS011;11385;50.822;4.324;2023-06-14T05:59:41;11.90;;;7.60;;
22435;SDS011;11385;50.822;4.324;2023-06-14T06:02:07;14.80;;;6.62;;
22435;SDS011;11385;50.822;4.324;2023-06-14T06:04:34;9.03;;;6.67;;
22435;SDS011;11385;50.822;4.324;2023-06-14T06:07:01;10.72;;;7.30;;
22435;SDS011;11385;50.822;4.324;2023-06-14T06:09:29;13.18;;;8.40;;
22435;SDS011;11385;50.822;4.324;2023-06-14T06:11:56;11.22;;;7.72;;
22435;SDS011;11385;50.822;4.324;2023-06-14T06:14:23;17.35;;;8.33;;
22435;SDS011;11385;50.822;4.324;2023-06-14T06:16:49;10.53;;;6.60;;
22435;SDS011;11385;50.822;4.324;2023-06-14T06:19:18;12.73;;;6.90;;
22435;SDS011;11385;50.822;4.324;2023-06-14T06:21:45;11.55;;;6.50;;
22435;SDS011;11385;50.822;4.324;2023-06-14T06:24:11;16.48;;;7.25;;
22435;SDS011;11385;50.822;4.324;2023-06-14T06:26:38;10.98;;;6.95;;
22435;SDS011;11385;50.822;4.324;2023-06-14T06:29:05;16.50;;;6.60;;
22435;SDS011;11385;50.822;4.324;2023-06-14T06:31:32;17.17;;;7.25;;
22435;SDS011;11385;50.822;4.324;2023-06-14T06:33:59;12.73;;;6.65;;
22435;SDS011;11385;50.822;4.324;2023-06-14T06:36:25;13.30;;;7.03;;
22435;SDS011;11385;50.822;4.324;2023-06-14T06:38:52;15.72;;;7.05;;
22435;SDS011;11385;50.822;4.324;2023-06-14T06:41:19;10.43;;;6.95;;
22435;SDS011;11385;50.822;4.324;2023-06-14T06:43:45;17.92;;;6.90;;
22435;SDS011;11385;50.822;4.324;2023-06-14T06:46:12;11.18;;;6.22;;
22435;SDS011;11385;50.822;4.324;2023-06-14T06:48:39;14.83;;;7.28;;
22435;SDS011;11385;50.822;4.324;2023-06-14T06:51:05;11.10;;;6.72;;
22435;SDS011;11385;50.822;4.324;2023-06-14T06:53:32;13.40;;;6.95;;
22435;SDS011;11385;50.822;4.324;2023-06-14T06:55:59;11.88;;;6.17;;
22435;SDS011;11385;50.822;4.324;2023-06-14T06:58:25;13.68;;;6.47;;
22435;SDS011;11385;50.822;4.324;2023-06-14T07:00:52;10.95;;;6.03;;
22435;SDS011;11385;50.822;4.324;2023-06-14T07:03:19;12.35;;;6.53;;
22435;SDS011;11385;50.822;4.324;2023-06-14T07:05:45;9.93;;;6.05;;
22435;SDS011;11385;50.822;4.324;2023-06-14T07:08:12;14.13;;;6.67;;
22435;SDS011;11385;50.822;4.324;2023-06-14T07:10:39;12.20;;;6.03;;
22435;SDS011;11385;50.822;4.324;2023-06-14T07:13:05;14.35;;;6.30;;
22435;SDS011;11385;50.822;4.324;2023-06-14T07:15:32;10.50;;;5.95;;
22435;SDS011;11385;50.822;4.324;2023-06-14T07:17:59;10.40;;;5.97;;
22435;SDS011;11385;50.822;4.324;2023-06-14T07:20:26;9.83;;;5.80;;
22435;SDS011;11385;50.822;4.324;2023-06-14T07:22:52;10.20;;;6.03;;
22435;SDS011;11385;50.822;4.324;2023-06-14T07:25:19;8.08;;;5.78;;
22435;SDS011;11385;50.822;4.324;2023-06-14T07:27:45;9.73;;;5.62;;
22435;SDS011;11385;50.822;4.324;2023-06-14T07:30:12;9.93;;;5.53;;
22435;SDS011;11385;50.822;4.324;2023-06-14T07:32:39;11.30;;;6.22;;
22435;SDS011;11385;50.822;4.324;2023-06-14T07:35:06;8.38;;;5.72;;
22435;SDS011;11385;50.822;4.324;2023-06-14T07:37:33;11.68;;;5.40;;
22435;SDS011;11385;50.822;4.324;2023-06-14T07:40:00;10.13;;;5.37;;
22435;SDS011;11385;50.822;4.324;2023-06-14T07:42:29;11.20;;;6.00;;
22435;SDS011;11385;50.822;4.324;2023-06-14T07:44:55;14.38;;;5.78;;
22435;SDS011;11385;50.822;4.324;2023-06-14T07:47:22;8.63;;;5.78;;
22435;SDS011;11385;50.822;4.324;2023-06-14T07:49:48;11.90;;;5.95;;
22435;SDS011;11385;50.822;4.324;2023-06-14T07:52:15;12.05;;;5.62;;
22435;SDS011;11385;50.822;4.324;2023-06-14T07:54:41;10.45;;;5.42;;
22435;SDS011;11385;50.822;4.324;2023-06-14T07:57:08;11.03;;;5.53;;
22435;SDS011;11385;50.822;4.324;2023-06-14T07:59:35;12.58;;;5.80;;
22435;SDS011;11385;50.822;4.324;2023-06-14T08:02:02;10.13;;;6.08;;
22435;SDS011;11385;50.822;4.324;2023-06-14T08:04:28;10.88;;;5.78;;
22435;SDS011;11385;50.822;4.324;2023-06-14T08:06:56;10.43;;;6.30;;
22435;SDS011;11385;50.822;4.324;2023-06-14T08:09:23;12.88;;;6.40;;
22435;SDS011;11385;50.822;4.324;2023-06-14T08:11:50;17.15;;;7.47;;
22435;SDS011;11385;50.822;4.324;2023-06-14T08:14:17;14.00;;;6.28;;
22435;SDS011;11385;50.822;4.324;2023-06-14T08:16:44;9.45;;;5.83;;
22435;SDS011;11385;50.822;4.324;2023-06-14T08:19:10;10.48;;;5.25;;
22435;SDS011;11385;50.822;4.324;2023-06-14T08:21:37;13.43;;;6.08;;
22435;SDS011;11385;50.822;4.324;2023-06-14T08:24:04;14.85;;;6.05;;
22435;SDS011;11385;50.822;4.324;2023-06-14T08:26:31;13.32;;;6.53;;
22435;SDS011;11385;50.822;4.324;2023-06-14T08:28:57;8.73;;;5.35;;
22435;SDS011;11385;50.822;4.324;2023-06-14T08:31:24;8.73;;;5.72;;
22435;SDS011;11385;50.822;4.324;2023-06-14T08:33:51;12.65;;;5.00;;
22435;SDS011;11385;50.822;4.324;2023-06-14T08:36:17;10.70;;;5.70;;
22435;SDS011;11385;50.822;4.324;2023-06-14T08:38:44;10.95;;;5.00;;
22435;SDS011;11385;50.822;4.324;2023-06-14T08:41:11;9.85;;;5.17;;
22435;SDS011;11385;50.822;4.324;2023-06-14T08:43:40;8.93;;;5.55;;
22435;SDS011;11385;50.822;4.324;2023-06-14T08:46:07;11.28;;;5.17;;
22435;SDS011;11385;50.822;4.324;2023-06-14T08:48:36;7.53;;;4.62;;
22435;SDS011;11385;50.822;4.324;2023-06-14T08:51:03;11.05;;;7.55;;
22435;SDS011;11385;50.822;4.324;2023-06-14T08:53:31;8.20;;;6.10;;
22435;SDS011;11385;50.822;4.324;2023-06-14T08:55:59;10.58;;;5.60;;
22435;SDS011;11385;50.822;4.324;2023-06-14T08:58:28;13.18;;;5.22;;
22435;SDS011;11385;50.822;4.324;2023-06-14T09:00:57;14.40;;;7.72;;
22435;SDS011;11385;50.822;4.324;2023-06-14T09:03:25;8.45;;;5.58;;
22435;SDS011;11385;50.822;4.324;2023-06-14T09:05:53;7.85;;;4.90;;
22435;SDS011;11385;50.822;4.324;2023-06-14T09:08:20;16.65;;;5.37;;
22435;SDS011;11385;50.822;4.324;2023-06-14T09:10:47;9.10;;;5.65;;
22435;SDS011;11385;50.822;4.324;2023-06-14T09:13:14;8.88;;;5.12;;
22435;SDS011;11385;50.822;4.324;2023-06-14T09:15:41;9.45;;;5.33;;
22435;SDS011;11385;50.822;4.324;2023-06-14T09:18:07;10.25;;;5.85;;
22435;SDS011;11385;50.822;4.324;2023-06-14T09:20:34;11.03;;;5.30;;
22435;SDS011;11385;50.822;4.324;2023-06-14T09:23:01;10.53;;;5.87;;
22435;SDS011;11385;50.822;4.324;2023-06-14T09:25:30;15.60;;;6.03;;
22435;SDS011;11385;50.822;4.324;2023-06-14T09:27:57;11.50;;;5.50;;
22435;SDS011;11385;50.822;4.324;2023-06-14T09:30:24;9.95;;;6.37;;
22435;SDS011;11385;50.822;4.324;2023-06-14T09:32:50;9.98;;;5.90;;
22435;SDS011;11385;50.822;4.324;2023-06-14T09:35:17;23.77;;;6.15;;
22435;SDS011;11385;50.822;4.324;2023-06-14T09:37:45;13.88;;;5.70;;
22435;SDS011;11385;50.822;4.324;2023-06-14T09:40:13;8.95;;;5.37;;
22435;SDS011;11385;50.822;4.324;2023-06-14T09:42:44;7.72;;;5.33;;
22435;SDS011;11385;50.822;4.324;2023-06-14T09:45:11;10.35;;;5.12;;
22435;SDS011;11385;50.822;4.324;2023-06-14T09:47:39;7.42;;;4.95;;
22435;SDS011;11385;50.822;4.324;2023-06-14T09:50:06;11.08;;;6.08;;
22435;SDS011;11385;50.822;4.324;2023-06-14T09:52:33;8.75;;;5.70;;
22435;SDS011;11385;50.822;4.324;2023-06-14T09:55:00;8.53;;;5.83;;
22435;SDS011;11385;50.822;4.324;2023-06-14T09:57:28;8.60;;;5.35;;
22435;SDS011;11385;50.822;4.324;2023-06-14T09:59:58;10.82;;;6.12;;
22435;SDS011;11385;50.822;4.324;2023-06-14T10:02:31;12.95;;;5.58;;
22435;SDS011;11385;50.822;4.324;2023-06-14T10:05:04;11.83;;;5.67;;
22435;SDS011;11385;50.822;4.324;2023-06-14T10:07:35;9.48;;;5.40;;
22435;SDS011;11385;50.822;4.324;2023-06-14T10:12:30;10.85;;;5.45;;
22435;SDS011;11385;50.822;4.324;2023-06-14T10:14:57;12.90;;;4.78;;
22435;SDS011;11385;50.822;4.324;2023-06-14T10:17:47;8.00;;;5.22;;
22435;SDS011;11385;50.822;4.324;2023-06-14T10:20:19;11.20;;;4.70;;
22435;SDS011;11385;50.822;4.324;2023-06-14T10:22:56;7.80;;;4.50;;
22435;SDS011;11385;50.822;4.324;2023-06-14T10:25:29;10.95;;;5.00;;
22435;SDS011;11385;50.822;4.324;2023-06-14T10:30:32;7.30;;;4.97;;
22435;SDS011;11385;50.822;4.324;2023-06-14T10:33:06;9.23;;;5.35;;
22435;SDS011;11385;50.822;4.324;2023-06-14T10:35:33;10.85;;;4.53;;
22435;SDS011;11385;50.822;4.324;2023-06-14T10:40:34;9.00;;;4.90;;
22435;SDS011;11385;50.822;4.324;2023-06-14T10:43:17;8.73;;;4.87;;
22435;SDS011;11385;50.822;4.324;2023-06-14T10:45:36;6.97;;;4.80;;
22435;SDS011;11385;50.822;4.324;2023-06-14T10:48:03;8.48;;;4.85;;
22435;SDS011;11385;50.822;4.324;2023-06-14T10:50:30;8.45;;;4.95;;
22435;SDS011;11385;50.822;4.324;2023-06-14T10:52:58;7.60;;;4.35;;
22435;SDS011;11385;50.822;4.324;2023-06-14T10:55:25;7.47;;;5.15;;
22435;SDS011;11385;50.822;4.324;2023-06-14T10:57:56;13.18;;;4.42;;
22435;SDS011;11385;50.822;4.324;2023-06-14T11:00:25;9.30;;;6.28;;
22435;SDS011;11385;50.822;4.324;2023-06-14T11:05:50;10.53;;;5.20;;
22435;SDS011;11385;50.822;4.324;2023-06-14T11:08:56;10.23;;;5.00;;
22435;SDS011;11385;50.822;4.324;2023-06-14T11:11:09;10.32;;;5.05;;
22435;SDS011;11385;50.822;4.324;2023-06-14T11:13:41;10.30;;;5.40;;
22435;SDS011;11385;50.822;4.324;2023-06-14T11:16:13;8.88;;;5.00;;
22435;SDS011;11385;50.822;4.324;2023-06-14T11:18:40;9.05;;;4.60;;
22435;SDS011;11385;50.822;4.324;2023-06-14T11:21:08;8.23;;;4.92;;
22435;SDS011;11385;50.822;4.324;2023-06-14T11:23:35;8.88;;;4.92;;
22435;SDS011;11385;50.822;4.324;2023-06-14T11:26:02;12.98;;;6.00;;
22435;SDS011;11385;50.822;4.324;2023-06-14T11:28:36;9.15;;;5.45;;
22435;SDS011;11385;50.822;4.324;2023-06-14T11:31:05;11.48;;;5.50;;
22435;SDS011;11385;50.822;4.324;2023-06-14T11:33:33;10.53;;;6.10;;
22435;SDS011;11385;50.822;4.324;2023-06-14T11:36:02;7.33;;;4.30;;
22435;SDS011;11385;50.822;4.324;2023-06-14T11:38:30;11.48;;;4.87;;
22435;SDS011;11385;50.822;4.324;2023-06-14T11:40:59;10.15;;;4.97;;
22435;SDS011;11385;50.822;4.324;2023-06-14T11:43:26;7.35;;;5.10;;
22435;SDS011;11385;50.822;4.324;2023-06-14T11:45:52;11.12;;;5.17;;
22435;SDS011;11385;50.822;4.324;2023-06-14T11:48:19;11.38;;;6.15;;
22435;SDS011;11385;50.822;4.324;2023-06-14T11:50:49;10.13;;;5.20;;
22435;SDS011;11385;50.822;4.324;2023-06-14T11:53:15;10.00;;;4.45;;
22435;SDS011;11385;50.822;4.324;2023-06-14T11:55:42;9.98;;;4.62;;
22435;SDS011;11385;50.822;4.324;2023-06-14T11:58:11;7.42;;;4.25;;
22435;SDS011;11385;50.822;4.324;2023-06-14T12:00:38;8.10;;;4.72;;
22435;SDS011;11385;50.822;4.324;2023-06-14T12:03:06;17.77;;;5.70;;
22435;SDS011;11385;50.822;4.324;2023-06-14T12:05:33;9.78;;;5.03;;
22435;SDS011;11385;50.822;4.324;2023-06-14T12:08:01;10.93;;;5.50;;
22435;SDS011;11385;50.822;4.324;2023-06-14T12:10:31;10.75;;;4.65;;
22435;SDS011;11385;50.822;4.324;2023-06-14T12:13:06;12.28;;;4.92;;
22435;SDS011;11385;50.822;4.324;2023-06-14T12:15:34;8.50;;;4.20;;
22435;SDS011;11385;50.822;4.324;2023-06-14T12:18:01;8.03;;;4.40;;
22435;SDS011;11385;50.822;4.324;2023-06-14T12:20:33;11.38;;;4.12;;
22435;SDS011;11385;50.822;4.324;2023-06-14T12:23:02;10.28;;;4.75;;
22435;SDS011;11385;50.822;4.324;2023-06-14T12:25:30;11.55;;;4.40;;
22435;SDS011;11385;50.822;4.324;2023-06-14T12:28:03;13.43;;;4.42;;
22435;SDS011;11385;50.822;4.324;2023-06-14T12:30:31;8.80;;;4.37;;
22435;SDS011;11385;50.822;4.324;2023-06-14T12:32:58;7.55;;;4.20;;
22435;SDS011;11385;50.822;4.324;2023-06-14T12:35:26;8.78;;;4.60;;
22435;SDS011;11385;50.822;4.324;2023-06-14T12:37:52;10.20;;;4.28;;
22435;SDS011;11385;50.822;4.324;2023-06-14T12:40:19;10.68;;;3.95;;
22435;SDS011;11385;50.822;4.324;2023-06-14T12:42:45;7.12;;;3.92;;
22435;SDS011;11385;50.822;4.324;2023-06-14T12:45:13;9.68;;;3.75;;
22435;SDS011;11385;50.822;4.324;2023-06-14T12:47:40;9.50;;;4.20;;
22435;SDS011;11385;50.822;4.324;2023-06-14T12:50:07;9.15;;;4.53;;
22435;SDS011;11385;50.822;4.324;2023-06-14T12:52:33;7.72;;;3.80;;
22435;SDS011;11385;50.822;4.324;2023-06-14T12:55:02;9.03;;;4.03;;
22435;SDS011;11385;50.822;4.324;2023-06-14T12:57:30;5.65;;;3.70;;
22435;SDS011;11385;50.822;4.324;2023-06-14T12:59:56;9.05;;;3.95;;
22435;SDS011;11385;50.822;4.324;2023-06-14T13:02:23;9.03;;;4.12;;
22435;SDS011;11385;50.822;4.324;2023-06-14T13:04:51;8.50;;;3.95;;
22435;SDS011;11385;50.822;4.324;2023-06-14T13:07:18;5.47;;;3.65;;
22435;SDS011;11385;50.822;4.324;2023-06-14T13:09:44;8.48;;;3.92;;
22435;SDS011;11385;50.822;4.324;2023-06-14T13:12:11;7.20;;;3.60;;
22435;SDS011;11385;50.822;4.324;2023-06-14T13:14:38;6.78;;;3.80;;
22435;SDS011;11385;50.822;4.324;2023-06-14T13:17:09;9.50;;;3.42;;
22435;SDS011;11385;50.822;4.324;2023-06-14T13:19:37;7.17;;;3.25;;
22435;SDS011;11385;50.822;4.324;2023-06-14T13:22:03;9.63;;;3.90;;
22435;SDS011;11385;50.822;4.324;2023-06-14T13:24:30;8.95;;;4.08;;
22435;SDS011;11385;50.822;4.324;2023-06-14T13:26:57;7.25;;;4.25;;
22435;SDS011;11385;50.822;4.324;2023-06-14T13:29:24;11.18;;;4.15;;
22435;SDS011;11385;50.822;4.324;2023-06-14T13:31:52;10.32;;;4.08;;
22435;SDS011;11385;50.822;4.324;2023-06-14T13:34:18;9.63;;;3.80;;
22435;SDS011;11385;50.822;4.324;2023-06-14T13:36:45;8.78;;;3.72;;
22435;SDS011;11385;50.822;4.324;2023-06-14T13:39:12;7.45;;;3.47;;
22435;SDS011;11385;50.822;4.324;2023-06-14T13:41:39;7.53;;;3.65;;
22435;SDS011;11385;50.822;4.324;2023-06-14T13:44:06;7.80;;;3.55;;
22435;SDS011;11385;50.822;4.324;2023-06-14T13:46:32;8.45;;;3.87;;
22435;SDS011;11385;50.822;4.324;2023-06-14T13:48:59;9.90;;;3.45;;
22435;SDS011;11385;50.822;4.324;2023-06-14T13:51:27;10.55;;;3.67;;
22435;SDS011;11385;50.822;4.324;2023-06-14T13:53:54;8.25;;;3.10;;
22435;SDS011;11385;50.822;4.324;2023-06-14T13:56:21;6.75;;;3.47;;
22435;SDS011;11385;50.822;4.324;2023-06-14T13:58:49;6.62;;;3.10;;
22435;SDS011;11385;50.822;4.324;2023-06-14T14:01:17;7.90;;;3.22;;
22435;SDS011;11385;50.822;4.324;2023-06-14T14:03:46;5.40;;;3.00;;
22435;SDS011;11385;50.822;4.324;2023-06-14T14:06:15;8.05;;;3.30;;
22435;SDS011;11385;50.822;4.324;2023-06-14T14:08:42;12.18;;;2.75;;
22435;SDS011;11385;50.822;4.324;2023-06-14T14:11:10;5.37;;;3.08;;
22435;SDS011;11385;50.822;4.324;2023-06-14T14:13:36;10.32;;;3.25;;
22435;SDS011;11385;50.822;4.324;2023-06-14T14:16:03;5.67;;;2.87;;
22435;SDS011;11385;50.822;4.324;2023-06-14T14:18:30;6.78;;;2.80;;
22435;SDS011;11385;50.822;4.324;2023-06-14T14:20:58;7.50;;;2.72;;
22435;SDS011;11385;50.822;4.324;2023-06-14T14:23:26;4.55;;;2.80;;
22435;SDS011;11385;50.822;4.324;2023-06-14T14:25:53;7.55;;;2.42;;
22435;SDS011;11385;50.822;4.324;2023-06-14T14:28:20;6.95;;;2.70;;
22435;SDS011;11385;50.822;4.324;2023-06-14T14:30:47;8.68;;;3.42;;
22435;SDS011;11385;50.822;4.324;2023-06-14T14:33:14;5.12;;;2.10;;
22435;SDS011;11385;50.822;4.324;2023-06-14T14:35:43;5.83;;;2.40;;
22435;SDS011;11385;50.822;4.324;2023-06-14T14:38:12;7.70;;;2.27;;
22435;SDS011;11385;50.822;4.324;2023-06-14T14:40:42;9.05;;;2.50;;
22435;SDS011;11385;50.822;4.324;2023-06-14T14:43:10;6.25;;;2.27;;
22435;SDS011;11385;50.822;4.324;2023-06-14T14:45:37;4.55;;;1.85;;
22435;SDS011;11385;50.822;4.324;2023-06-14T14:48:04;7.00;;;2.80;;
22435;SDS011;11385;50.822;4.324;2023-06-14T14:50:31;7.25;;;5.65;;
22435;SDS011;11385;50.822;4.324;2023-06-14T14:52:58;5.62;;;2.05;;
22435;SDS011;11385;50.822;4.324;2023-06-14T14:55:25;5.30;;;2.10;;
22435;SDS011;11385;50.822;4.324;2023-06-14T14:57:52;3.37;;;1.92;;
22435;SDS011;11385;50.822;4.324;2023-06-14T15:00:18;6.42;;;2.70;;
22435;SDS011;11385;50.822;4.324;2023-06-14T15:02:45;6.25;;;1.77;;